sensor_id;sensor_type;location;lat;lon;timestamp;pressure;altitude;pressure_sealevel;temperature;humidity
26865;BME280;40618;51.166;10.322;2023-02-01T00:01:57;97506.47;;;2.27;87.19
26865;BME280;40618;51.166;10.322;2023-02-01T00:04:23;97501.38;;;2.25;86.44
26865;BME280;40618;51.166;10.322;2023-02-01T00:06:48;97488.59;;;2.25;86.82
26865;BME280;40618;51.166;10.322;2023-02-01T00:09:14;97481.75;;;2.23;86.28
26865;BME280;40618;51.166;10.322;2023-02-01T00:11:40;97493.69;;;2.22;87.15
26865;BME280;40618;51.166;10.322;2023-02-01T00:14:06;97479.22;;;2.21;86.63
26865;BME280;40618;51.166;10.322;2023-02-01T00:16:33;97486.88;;;2.21;86.87
26865;BME280;40618;51.166;10.322;2023-02-01T00:19:02;97483.47;;;2.20;86.64
26865;BME280;40618;51.166;10.322;2023-02-01T00:21:31;97485.16;;;2.18;87.07
26865;BME280;40618;51.166;10.322;2023-02-01T00:23:57;97479.22;;;2.18;86.92
26865;BME280;40618;51.166;10.322;2023-02-01T00:26:42;97477.50;;;2.17;86.57
26865;BME280;40618;51.166;10.322;2023-02-01T00:29:16;97484.31;;;2.15;86.12
26865;BME280;40618;51.166;10.322;2023-02-01T00:31:43;97480.03;;;2.15;86.79
26865;BME280;40618;51.166;10.322;2023-02-01T00:34:14;97476.66;;;2.13;86.92
26865;BME280;40618;51.166;10.322;2023-02-01T00:36:42;97478.34;;;2.14;86.83
26865;BME280;40618;51.166;10.322;2023-02-01T00:39:09;97481.75;;;2.15;86.33
26865;BME280;40618;51.166;10.322;2023-02-01T00:41:35;97482.59;;;2.14;86.24
26865;BME280;40618;51.166;10.322;2023-02-01T00:44:01;97478.31;;;2.13;86.18
26865;BME280;40618;51.166;10.322;2023-02-01T00:46:27;97490.25;;;2.14;86.24
26865;BME280;40618;51.166;10.322;2023-02-01T00:48:53;97481.75;;;2.13;86.71
26865;BME280;40618;51.166;10.322;2023-02-01T00:51:22;97482.59;;;2.12;86.69
26865;BME280;40618;51.166;10.322;2023-02-01T00:53:51;97477.50;;;2.14;86.78
26865;BME280;40618;51.166;10.322;2023-02-01T00:56:17;97480.88;;;2.13;86.18
26865;BME280;40618;51.166;10.322;2023-02-01T00:58:43;97470.66;;;2.13;85.81
26865;BME280;40618;51.166;10.322;2023-02-01T01:01:23;97463.00;;;2.11;86.74
26865;BME280;40618;51.166;10.322;2023-02-01T01:03:53;97457.06;;;2.11;85.96
26865;BME280;40618;51.166;10.322;2023-02-01T01:06:24;97464.72;;;2.11;86.40
26865;BME280;40618;51.166;10.322;2023-02-01T01:08:53;97460.44;;;2.10;85.95
26865;BME280;40618;51.166;10.322;2023-02-01T01:11:23;97454.50;;;2.09;86.65
26865;BME280;40618;51.166;10.322;2023-02-01T01:13:52;97457.88;;;2.10;86.73
26865;BME280;40618;51.166;10.322;2023-02-01T01:16:20;97465.56;;;2.11;86.03
26865;BME280;40618;51.166;10.322;2023-02-01T01:18:47;97465.56;;;2.11;86.66
26865;BME280;40618;51.166;10.322;2023-02-01T01:21:14;97472.38;;;2.11;85.77
26865;BME280;40618;51.166;10.322;2023-02-01T01:23:41;97470.66;;;2.13;86.09
26865;BME280;40618;51.166;10.322;2023-02-01T01:26:09;97480.03;;;2.14;85.74
26865;BME280;40618;51.166;10.322;2023-02-01T01:28:37;97468.13;;;2.14;86.26
26865;BME280;40618;51.166;10.322;2023-02-01T01:31:03;97460.44;;;2.14;86.18
26865;BME280;40618;51.166;10.322;2023-02-01T01:33:29;97470.66;;;2.16;85.99
26865;BME280;40618;51.166;10.322;2023-02-01T01:35:55;97461.31;;;2.16;86.58
26865;BME280;40618;51.166;10.322;2023-02-01T01:38:20;97461.31;;;2.16;85.74
26865;BME280;40618;51.166;10.322;2023-02-01T01:40:47;97457.91;;;2.16;86.13
26865;BME280;40618;51.166;10.322;2023-02-01T01:43:17;97446.84;;;2.17;85.88
26865;BME280;40618;51.166;10.322;2023-02-01T01:45:46;97445.16;;;2.19;86.17
26865;BME280;40618;51.166;10.322;2023-02-01T01:50:57;97438.34;;;2.16;86.15
26865;BME280;40618;51.166;10.322;2023-02-01T01:53:31;97428.97;;;2.15;85.72
26865;BME280;40618;51.166;10.322;2023-02-01T01:56:03;97431.50;;;2.15;85.25
26865;BME280;40618;51.166;10.322;2023-02-01T01:58:30;97422.13;;;2.16;86.08
26865;BME280;40618;51.166;10.322;2023-02-01T02:00:59;97428.13;;;2.15;86.04
26865;BME280;40618;51.166;10.322;2023-02-01T02:03:31;97417.91;;;2.16;85.36
26865;BME280;40618;51.166;10.322;2023-02-01T02:06:01;97420.44;;;2.18;85.29
26865;BME280;40618;51.166;10.322;2023-02-01T02:08:29;97415.34;;;2.18;85.83
26865;BME280;40618;51.166;10.322;2023-02-01T02:10:55;97419.59;;;2.19;85.24
26865;BME280;40618;51.166;10.322;2023-02-01T02:13:33;97419.59;;;2.19;85.53
26865;BME280;40618;51.166;10.322;2023-02-01T02:31:16;97405.97;;;2.12;85.23
26865;BME280;40618;51.166;10.322;2023-02-01T02:39:36;97397.44;;;2.09;85.50
26865;BME280;40618;51.166;10.322;2023-02-01T02:42:12;97403.38;;;2.08;85.46
26865;BME280;40618;51.166;10.322;2023-02-01T02:45:10;97400.81;;;2.08;85.84
26865;BME280;40618;51.166;10.322;2023-02-01T02:48:48;97399.13;;;2.07;85.91
26865;BME280;40618;51.166;10.322;2023-02-01T02:51:13;97396.56;;;2.03;85.82
26865;BME280;40618;51.166;10.322;2023-02-01T02:54:05;97393.16;;;2.01;85.79
26865;BME280;40618;51.166;10.322;2023-02-01T02:56:53;97388.91;;;1.99;85.93
26865;BME280;40618;51.166;10.322;2023-02-01T02:59:43;97395.72;;;1.98;85.26
26865;BME280;40618;51.166;10.322;2023-02-01T03:02:29;97393.16;;;1.98;85.92
26865;BME280;40618;51.166;10.322;2023-02-01T03:05:14;97383.78;;;1.97;86.14
26865;BME280;40618;51.166;10.322;2023-02-01T03:10:23;97376.13;;;1.96;85.17
26865;BME280;40618;51.166;10.322;2023-02-01T03:12:53;97372.69;;;1.88;85.46
26865;BME280;40618;51.166;10.322;2023-02-01T03:15:29;97368.44;;;1.82;85.60
26865;BME280;40618;51.166;10.322;2023-02-01T03:18:07;97366.72;;;1.78;86.14
26865;BME280;40618;51.166;10.322;2023-02-01T03:20:40;97368.38;;;1.73;85.96
26865;BME280;40618;51.166;10.322;2023-02-01T03:23:12;97366.69;;;1.72;86.25
26865;BME280;40618;51.166;10.322;2023-02-01T03:25:42;97364.13;;;1.70;85.57
26865;BME280;40618;51.166;10.322;2023-02-01T03:28:09;97364.13;;;1.65;86.04
26865;BME280;40618;51.166;10.322;2023-02-01T03:30:38;97363.25;;;1.60;86.13
26865;BME280;40618;51.166;10.322;2023-02-01T03:33:11;97380.22;;;1.58;86.21
26865;BME280;40618;51.166;10.322;2023-02-01T03:36:00;97379.38;;;1.58;85.91
26865;BME280;40618;51.166;10.322;2023-02-01T03:38:36;97380.22;;;1.55;86.66
26865;BME280;40618;51.166;10.322;2023-02-01T03:41:43;97376.78;;;1.53;86.19
26865;BME280;40618;51.166;10.322;2023-02-01T03:44:31;97366.59;;;1.53;86.39
26865;BME280;40618;51.166;10.322;2023-02-01T03:47:06;97357.25;;;1.57;86.83
26865;BME280;40618;51.166;10.322;2023-02-01T03:49:45;97356.41;;;1.59;86.20
26865;BME280;40618;51.166;10.322;2023-02-01T03:52:17;97356.41;;;1.59;86.08
26865;BME280;40618;51.166;10.322;2023-02-01T03:54:47;97351.31;;;1.61;86.81
26865;BME280;40618;51.166;10.322;2023-02-01T03:57:16;97352.19;;;1.63;86.46
26865;BME280;40618;51.166;10.322;2023-02-01T03:59:47;97341.09;;;1.64;86.99
26865;BME280;40618;51.166;10.322;2023-02-01T04:02:14;97341.16;;;1.65;86.14
26865;BME280;40618;51.166;10.322;2023-02-01T04:04:42;97342.81;;;1.66;87.07
26865;BME280;40618;51.166;10.322;2023-02-01T04:07:08;97340.31;;;1.69;86.14
26865;BME280;40618;51.166;10.322;2023-02-01T04:09:34;97332.66;;;1.71;86.32
26865;BME280;40618;51.166;10.322;2023-02-01T04:12:00;97329.22;;;1.72;86.78
26865;BME280;40618;51.166;10.322;2023-02-01T04:14:26;97315.63;;;1.73;87.13
26865;BME280;40618;51.166;10.322;2023-02-01T04:16:51;97310.50;;;1.75;86.79
26865;BME280;40618;51.166;10.322;2023-02-01T04:19:17;97319.03;;;1.75;86.51
26865;BME280;40618;51.166;10.322;2023-02-01T04:21:42;97322.44;;;1.76;86.19
26865;BME280;40618;51.166;10.322;2023-02-01T04:24:08;97320.72;;;1.76;86.39
26865;BME280;40618;51.166;10.322;2023-02-01T04:26:34;97311.38;;;1.77;86.81
26865;BME280;40618;51.166;10.322;2023-02-01T04:29:00;97308.00;;;1.78;86.70
26865;BME280;40618;51.166;10.322;2023-02-01T04:31:25;97309.69;;;1.79;87.00
26865;BME280;40618;51.166;10.322;2023-02-01T04:33:53;97302.88;;;1.79;86.98
26865;BME280;40618;51.166;10.322;2023-02-01T04:36:21;97289.25;;;1.80;86.56
26865;BME280;40618;51.166;10.322;2023-02-01T04:38:48;97285.84;;;1.81;87.27
26865;BME280;40618;51.166;10.322;2023-02-01T04:41:14;97277.34;;;1.81;87.09
26865;BME280;40618;51.166;10.322;2023-02-01T04:43:44;97278.19;;;1.80;86.49
26865;BME280;40618;51.166;10.322;2023-02-01T04:46:13;97267.13;;;1.76;86.23
26865;BME280;40618;51.166;10.322;2023-02-01T04:48:39;97273.09;;;1.75;86.76
26865;BME280;40618;51.166;10.322;2023-02-01T04:51:05;97278.19;;;1.77;86.55
26865;BME280;40618;51.166;10.322;2023-02-01T04:53:31;97274.78;;;1.75;87.18
26865;BME280;40618;51.166;10.322;2023-02-01T04:55:57;97275.66;;;1.77;87.08
26865;BME280;40618;51.166;10.322;2023-02-01T04:58:22;97271.38;;;1.79;87.01
26865;BME280;40618;51.166;10.322;2023-02-01T05:00:48;97273.09;;;1.80;86.22
26865;BME280;40618;51.166;10.322;2023-02-01T05:03:14;97269.69;;;1.81;86.59
26865;BME280;40618;51.166;10.322;2023-02-01T05:05:41;97264.59;;;1.84;86.47
26865;BME280;40618;51.166;10.322;2023-02-01T05:08:07;97256.09;;;1.85;86.70
26865;BME280;40618;51.166;10.322;2023-02-01T05:10:32;97259.47;;;1.85;86.30
26865;BME280;40618;51.166;10.322;2023-02-01T05:12:58;97250.97;;;1.86;86.12
26865;BME280;40618;51.166;10.322;2023-02-01T05:15:42;97240.75;;;1.85;86.25
26865;BME280;40618;51.166;10.322;2023-02-01T05:18:08;97244.16;;;1.85;87.13
26865;BME280;40618;51.166;10.322;2023-02-01T05:20:33;97237.38;;;1.86;86.85
26865;BME280;40618;51.166;10.322;2023-02-01T05:22:59;97242.47;;;1.86;86.52
26865;BME280;40618;51.166;10.322;2023-02-01T05:25:25;97234.81;;;1.89;86.83
26865;BME280;40618;51.166;10.322;2023-02-01T05:27:51;97234.81;;;1.89;86.13
26865;BME280;40618;51.166;10.322;2023-02-01T05:30:16;97235.66;;;1.90;86.30
26865;BME280;40618;51.166;10.322;2023-02-01T05:32:42;97228.84;;;1.90;86.47
26865;BME280;40618;51.166;10.322;2023-02-01T05:35:08;97221.19;;;1.93;85.82
26865;BME280;40618;51.166;10.322;2023-02-01T05:37:34;97221.19;;;1.93;86.04
26865;BME280;40618;51.166;10.322;2023-02-01T05:40:00;97220.34;;;1.94;86.85
26865;BME280;40618;51.166;10.322;2023-02-01T05:42:25;97219.47;;;1.94;86.63
26865;BME280;40618;51.166;10.322;2023-02-01T05:44:51;97230.53;;;1.93;86.10
26865;BME280;40618;51.166;10.322;2023-02-01T05:47:17;97225.47;;;1.94;86.20
26865;BME280;40618;51.166;10.322;2023-02-01T05:49:42;97222.03;;;1.95;86.59
26865;BME280;40618;51.166;10.322;2023-02-01T05:52:08;97220.34;;;1.97;86.56
26865;BME280;40618;51.166;10.322;2023-02-01T05:54:34;97220.34;;;1.97;86.37
26865;BME280;40618;51.166;10.322;2023-02-01T05:56:59;97217.78;;;2.00;86.16
26865;BME280;40618;51.166;10.322;2023-02-01T05:59:25;97208.44;;;2.02;86.37
26865;BME280;40618;51.166;10.322;2023-02-01T06:01:50;97207.56;;;2.03;85.61
26865;BME280;40618;51.166;10.322;2023-02-01T06:04:16;97210.97;;;2.04;86.60
26865;BME280;40618;51.166;10.322;2023-02-01T06:06:41;97210.13;;;2.03;86.36
26865;BME280;40618;51.166;10.322;2023-02-01T06:09:07;97208.44;;;2.04;86.29
26865;BME280;40618;51.166;10.322;2023-02-01T06:11:33;97208.44;;;2.04;85.88
26865;BME280;40618;51.166;10.322;2023-02-01T06:13:59;97205.88;;;2.07;86.08
26865;BME280;40618;51.166;10.322;2023-02-01T06:16:25;97216.06;;;2.10;85.96
26865;BME280;40618;51.166;10.322;2023-02-01T06:18:51;97210.13;;;2.13;85.60
26865;BME280;40618;51.166;10.322;2023-02-01T06:21:17;97205.00;;;2.13;85.64
26865;BME280;40618;51.166;10.322;2023-02-01T06:23:50;97196.50;;;2.14;85.65
26865;BME280;40618;51.166;10.322;2023-02-01T06:26:16;97204.16;;;2.14;86.01
26865;BME280;40618;51.166;10.322;2023-02-01T06:28:43;97194.78;;;2.16;85.72
26865;BME280;40618;51.166;10.322;2023-02-01T06:31:09;97210.97;;;2.18;85.50
26865;BME280;40618;51.166;10.322;2023-02-01T06:33:35;97202.47;;;2.17;85.73
26865;BME280;40618;51.166;10.322;2023-02-01T06:36:04;97198.19;;;2.18;85.92
26865;BME280;40618;51.166;10.322;2023-02-01T06:38:32;97200.75;;;2.19;85.10
26865;BME280;40618;51.166;10.322;2023-02-01T06:41:01;97205.84;;;2.19;85.33
26865;BME280;40618;51.166;10.322;2023-02-01T06:43:27;97199.03;;;2.20;85.20
26865;BME280;40618;51.166;10.322;2023-02-01T06:45:58;97196.50;;;2.17;85.57
26865;BME280;40618;51.166;10.322;2023-02-01T06:48:25;97184.56;;;2.16;85.08
26865;BME280;40618;51.166;10.322;2023-02-01T06:50:51;97196.50;;;2.15;84.84
26865;BME280;40618;51.166;10.322;2023-02-01T06:53:17;97210.97;;;2.16;84.95
26865;BME280;40618;51.166;10.322;2023-02-01T06:55:54;97208.44;;;2.15;85.19
26865;BME280;40618;51.166;10.322;2023-02-01T06:58:22;97203.28;;;2.12;85.20
26865;BME280;40618;51.166;10.322;2023-02-01T07:00:48;97199.91;;;2.10;85.67
26865;BME280;40618;51.166;10.322;2023-02-01T07:03:14;97207.56;;;2.08;85.60
26865;BME280;40618;51.166;10.322;2023-02-01T07:05:40;97194.81;;;2.10;84.67
26865;BME280;40618;51.166;10.322;2023-02-01T07:08:05;97196.50;;;2.09;85.63
26865;BME280;40618;51.166;10.322;2023-02-01T07:10:31;97199.91;;;2.10;84.84
26865;BME280;40618;51.166;10.322;2023-02-01T07:12:57;97202.47;;;2.08;85.42
26865;BME280;40618;51.166;10.322;2023-02-01T07:15:23;97199.91;;;2.07;85.13
26865;BME280;40618;51.166;10.322;2023-02-01T07:17:49;97209.25;;;2.06;85.39
26865;BME280;40618;51.166;10.322;2023-02-01T07:20:15;97215.25;;;2.07;85.22
26865;BME280;40618;51.166;10.322;2023-02-01T07:22:41;97215.25;;;2.07;85.59
26865;BME280;40618;51.166;10.322;2023-02-01T07:25:07;97216.09;;;2.07;85.17
26865;BME280;40618;51.166;10.322;2023-02-01T07:27:34;97223.75;;;2.09;84.67
26865;BME280;40618;51.166;10.322;2023-02-01T07:30:00;97227.16;;;2.09;85.44
26865;BME280;40618;51.166;10.322;2023-02-01T07:32:28;97222.06;;;2.09;85.10
26865;BME280;40618;51.166;10.322;2023-02-01T07:34:54;97228.00;;;2.10;85.00
26865;BME280;40618;51.166;10.322;2023-02-01T07:37:20;97224.59;;;2.11;84.55
26865;BME280;40618;51.166;10.322;2023-02-01T07:39:46;97218.63;;;2.12;85.18
26865;BME280;40618;51.166;10.322;2023-02-01T07:42:11;97218.63;;;2.12;85.14
26865;BME280;40618;51.166;10.322;2023-02-01T07:44:37;97228.00;;;2.13;85.06
26865;BME280;40618;51.166;10.322;2023-02-01T07:47:03;97222.88;;;2.14;84.59
26865;BME280;40618;51.166;10.322;2023-02-01T07:49:28;97231.41;;;2.13;84.63
26865;BME280;40618;51.166;10.322;2023-02-01T07:51:54;97234.81;;;2.12;85.01
26865;BME280;40618;51.166;10.322;2023-02-01T07:54:19;97243.31;;;2.13;85.38
26865;BME280;40618;51.166;10.322;2023-02-01T07:56:45;97252.72;;;2.09;85.15
26865;BME280;40618;51.166;10.322;2023-02-01T07:59:11;97250.13;;;2.05;85.23
26865;BME280;40618;51.166;10.322;2023-02-01T08:01:37;97257.81;;;2.01;84.91
26865;BME280;40618;51.166;10.322;2023-02-01T08:04:03;97255.25;;;2.01;85.38
26865;BME280;40618;51.166;10.322;2023-02-01T08:06:31;97250.13;;;2.03;84.83
26865;BME280;40618;51.166;10.322;2023-02-01T08:08:59;97240.78;;;2.05;84.92
26865;BME280;40618;51.166;10.322;2023-02-01T08:11:25;97256.97;;;2.02;84.79
26865;BME280;40618;51.166;10.322;2023-02-01T08:13:51;97250.97;;;2.03;85.57
26865;BME280;40618;51.166;10.322;2023-02-01T08:16:19;97258.66;;;2.05;85.03
26865;BME280;40618;51.166;10.322;2023-02-01T08:18:45;97262.06;;;2.04;84.88
26865;BME280;40618;51.166;10.322;2023-02-01T08:21:25;97263.78;;;2.05;85.60
26865;BME280;40618;51.166;10.322;2023-02-01T08:24:02;97266.31;;;2.10;84.85
26865;BME280;40618;51.166;10.322;2023-02-01T08:26:32;97266.31;;;2.11;85.26
26865;BME280;40618;51.166;10.322;2023-02-01T08:28:59;97269.75;;;2.13;84.86
26865;BME280;40618;51.166;10.322;2023-02-01T08:31:28;97273.13;;;2.15;85.53
26865;BME280;40618;51.166;10.322;2023-02-01T08:34:00;97285.06;;;2.19;85.20
26865;BME280;40618;51.166;10.322;2023-02-01T08:36:29;97292.72;;;2.18;84.91
26865;BME280;40618;51.166;10.322;2023-02-01T08:38:56;97302.06;;;2.16;85.30
26865;BME280;40618;51.166;10.322;2023-02-01T08:41:24;97293.56;;;2.12;85.54
26865;BME280;40618;51.166;10.322;2023-02-01T08:43:52;97308.88;;;2.08;85.49
26865;BME280;40618;51.166;10.322;2023-02-01T08:46:19;97315.69;;;2.06;84.81
26865;BME280;40618;51.166;10.322;2023-02-01T08:48:46;97310.59;;;2.02;85.41
26865;BME280;40618;51.166;10.322;2023-02-01T08:51:13;97309.72;;;1.97;84.78
26865;BME280;40618;51.166;10.322;2023-02-01T08:53:41;97319.06;;;1.95;85.23
26865;BME280;40618;51.166;10.322;2023-02-01T08:56:09;97309.69;;;1.91;85.02
26865;BME280;40618;51.166;10.322;2023-02-01T08:58:35;97311.41;;;1.86;85.28
26865;BME280;40618;51.166;10.322;2023-02-01T09:01:10;97321.63;;;1.89;85.71
26865;BME280;40618;51.166;10.322;2023-02-01T09:03:38;97313.13;;;1.92;85.99
26865;BME280;40618;51.166;10.322;2023-02-01T09:06:06;97305.47;;;1.95;85.24
26865;BME280;40618;51.166;10.322;2023-02-01T09:08:35;97307.16;;;1.99;85.61
26865;BME280;40618;51.166;10.322;2023-02-01T09:11:05;97308.88;;;2.01;85.42
26865;BME280;40618;51.166;10.322;2023-02-01T09:13:32;97313.97;;;2.05;85.69
26865;BME280;40618;51.166;10.322;2023-02-01T09:16:02;97323.34;;;2.09;85.90
26865;BME280;40618;51.166;10.322;2023-02-01T09:18:28;97322.50;;;2.10;86.08
26865;BME280;40618;51.166;10.322;2023-02-01T09:20:54;97322.50;;;2.10;85.39
26865;BME280;40618;51.166;10.322;2023-02-01T09:23:19;97317.41;;;2.13;85.86
26865;BME280;40618;51.166;10.322;2023-02-01T09:25:45;97325.06;;;2.14;85.63
26865;BME280;40618;51.166;10.322;2023-02-01T09:28:13;97323.38;;;2.18;85.60
26865;BME280;40618;51.166;10.322;2023-02-01T09:30:39;97302.09;;;2.20;86.13
26865;BME280;40618;51.166;10.322;2023-02-01T09:33:04;97320.81;;;2.24;86.11
26865;BME280;40618;51.166;10.322;2023-02-01T09:35:30;97322.53;;;2.25;85.35
26865;BME280;40618;51.166;10.322;2023-02-01T09:37:56;97325.94;;;2.29;85.33
26865;BME280;40618;51.166;10.322;2023-02-01T09:40:22;97311.44;;;2.31;85.67
26865;BME280;40618;51.166;10.322;2023-02-01T09:43:10;97327.66;;;2.34;85.20
26865;BME280;40618;51.166;10.322;2023-02-01T09:48:35;97302.94;;;2.41;85.03
26865;BME280;40618;51.166;10.322;2023-02-01T09:51:13;97309.75;;;2.47;85.69
26865;BME280;40618;51.166;10.322;2023-02-01T09:53:47;97313.16;;;2.52;85.92
26865;BME280;40618;51.166;10.322;2023-02-01T09:59:42;97320.00;;;2.64;84.89
26865;BME280;40618;51.166;10.322;2023-02-01T10:02:26;97316.56;;;2.68;85.69
26865;BME280;40618;51.166;10.322;2023-02-01T10:04:57;97319.13;;;2.71;85.14
26865;BME280;40618;51.166;10.322;2023-02-01T10:07:39;97317.41;;;2.79;84.97
26865;BME280;40618;51.166;10.322;2023-02-01T10:10:52;97314.84;;;2.81;85.48
26865;BME280;40618;51.166;10.322;2023-02-01T10:22:10;97308.88;;;2.85;85.18
26865;BME280;40618;51.166;10.322;2023-02-01T10:27:45;97312.28;;;2.90;85.02
26865;BME280;40618;51.166;10.322;2023-02-01T10:32:55;97320.78;;;2.94;84.31
26865;BME280;40618;51.166;10.322;2023-02-01T10:35:29;97319.94;;;2.95;84.61
26865;BME280;40618;51.166;10.322;2023-02-01T10:38:00;97313.13;;;2.97;85.26
26865;BME280;40618;51.166;10.322;2023-02-01T10:40:28;97316.50;;;2.99;85.16
26865;BME280;40618;51.166;10.322;2023-02-01T10:42:57;97314.81;;;2.99;84.14
26865;BME280;40618;51.166;10.322;2023-02-01T10:45:27;97309.69;;;2.98;84.70
26865;BME280;40618;51.166;10.322;2023-02-01T10:47:59;97308.00;;;2.98;84.99
26865;BME280;40618;51.166;10.322;2023-02-01T10:53:25;97319.94;;;2.99;84.04
26865;BME280;40618;51.166;10.322;2023-02-01T10:56:09;97310.53;;;2.94;84.48
26865;BME280;40618;51.166;10.322;2023-02-01T10:58:44;97310.56;;;2.92;84.25
26865;BME280;40618;51.166;10.322;2023-02-01T11:01:18;97315.66;;;2.92;84.15
26865;BME280;40618;51.166;10.322;2023-02-01T11:04:01;97311.41;;;2.90;84.12
26865;BME280;40618;51.166;10.322;2023-02-01T11:06:36;97323.34;;;2.91;84.17
26865;BME280;40618;51.166;10.322;2023-02-01T11:14:39;97309.69;;;2.87;84.51
26865;BME280;40618;51.166;10.322;2023-02-01T11:19:45;97307.16;;;2.90;84.74
26865;BME280;40618;51.166;10.322;2023-02-01T11:22:12;97293.50;;;2.91;84.41
26865;BME280;40618;51.166;10.322;2023-02-01T11:24:40;97303.75;;;2.93;84.33
26865;BME280;40618;51.166;10.322;2023-02-01T11:27:16;97296.91;;;2.95;84.66
26865;BME280;40618;51.166;10.322;2023-02-01T11:29:49;97300.31;;;2.98;84.73
26865;BME280;40618;51.166;10.322;2023-02-01T11:32:19;97294.34;;;2.99;84.17
26865;BME280;40618;51.166;10.322;2023-02-01T11:35:00;97286.66;;;3.02;83.87
26865;BME280;40618;51.166;10.322;2023-02-01T11:37:35;97278.97;;;3.07;84.90
26865;BME280;40618;51.166;10.322;2023-02-01T11:40:25;97267.88;;;3.10;84.50
26865;BME280;40618;51.166;10.322;2023-02-01T11:42:56;97257.63;;;3.13;84.39
26865;BME280;40618;51.166;10.322;2023-02-01T11:47:54;97273.00;;;3.16;84.22
26865;BME280;40618;51.166;10.322;2023-02-01T11:50:38;97268.72;;;3.16;84.38
26865;BME280;40618;51.166;10.322;2023-02-01T11:53:18;97264.44;;;3.17;84.12
26865;BME280;40618;51.166;10.322;2023-02-01T12:02:00;97257.63;;;3.14;84.07
26865;BME280;40618;51.166;10.322;2023-02-01T12:21:38;97245.66;;;3.21;84.21
26865;BME280;40618;51.166;10.322;2023-02-01T12:30:06;97220.91;;;3.25;83.95
26865;BME280;40618;51.166;10.322;2023-02-01T12:33:03;97214.09;;;3.24;83.45
26865;BME280;40618;51.166;10.322;2023-02-01T12:42:14;97190.16;;;3.32;83.74
26865;BME280;40618;51.166;10.322;2023-02-01T12:45:15;97183.31;;;3.36;83.52
26865;BME280;40618;51.166;10.322;2023-02-01T12:47:59;97173.94;;;3.36;83.70
26865;BME280;40618;51.166;10.322;2023-02-01T12:50:52;97177.31;;;3.38;83.74
26865;BME280;40618;51.166;10.322;2023-02-01T12:56:00;97172.19;;;3.40;83.48
26865;BME280;40618;51.166;10.322;2023-02-01T12:58:50;97165.38;;;3.41;82.95
26865;BME280;40618;51.166;10.322;2023-02-01T13:03:59;97139.78;;;3.41;83.27
26865;BME280;40618;51.166;10.322;2023-02-01T13:06:39;97135.50;;;3.41;82.62
26865;BME280;40618;51.166;10.322;2023-02-01T13:12:49;97120.16;;;3.39;82.48
26865;BME280;40618;51.166;10.322;2023-02-01T13:15:32;97129.56;;;3.39;82.52
26865;BME280;40618;51.166;10.322;2023-02-01T13:18:08;97116.78;;;3.39;82.82
26865;BME280;40618;51.166;10.322;2023-02-01T13:20:58;97111.63;;;3.37;82.74
26865;BME280;40618;51.166;10.322;2023-02-01T13:23:36;97110.78;;;3.38;82.92
26865;BME280;40618;51.166;10.322;2023-02-01T13:26:04;97110.75;;;3.42;82.83
26865;BME280;40618;51.166;10.322;2023-02-01T13:28:50;97110.75;;;3.43;82.86
26865;BME280;40618;51.166;10.322;2023-02-01T13:37:05;97110.66;;;3.55;82.13
26865;BME280;40618;51.166;10.322;2023-02-01T13:39:48;97106.34;;;3.59;82.16
26865;BME280;40618;51.166;10.322;2023-02-01T13:42:50;97096.94;;;3.63;82.21
26865;BME280;40618;51.166;10.322;2023-02-01T13:45:28;97113.13;;;3.65;82.55
26865;BME280;40618;51.166;10.322;2023-02-01T13:47:58;97091.81;;;3.64;82.42
26865;BME280;40618;51.166;10.322;2023-02-01T13:50:36;97087.53;;;3.63;82.03
26865;BME280;40618;51.166;10.322;2023-02-01T13:55:38;97088.41;;;3.62;81.74
26865;BME280;40618;51.166;10.322;2023-02-01T13:58:19;97088.44;;;3.59;82.08
26865;BME280;40618;51.166;10.322;2023-02-01T14:00:48;97080.78;;;3.58;81.53
26865;BME280;40618;51.166;10.322;2023-02-01T14:03:43;97101.28;;;3.56;81.37
26865;BME280;40618;51.166;10.322;2023-02-01T14:09:10;97084.22;;;3.53;81.55
26865;BME280;40618;51.166;10.322;2023-02-01T14:19:22;97082.63;;;3.38;81.55
26865;BME280;40618;51.166;10.322;2023-02-01T14:24:29;97086.13;;;3.30;81.76
26865;BME280;40618;51.166;10.322;2023-02-01T14:26:59;97077.59;;;3.26;81.18
26865;BME280;40618;51.166;10.322;2023-02-01T14:30:14;97057.16;;;3.25;81.74
26865;BME280;40618;51.166;10.322;2023-02-01T14:32:41;97075.06;;;3.23;82.11
26865;BME280;40618;51.166;10.322;2023-02-01T14:35:20;97066.53;;;3.22;81.58
26865;BME280;40618;51.166;10.322;2023-02-01T14:37:53;97058.00;;;3.22;81.57
26865;BME280;40618;51.166;10.322;2023-02-01T14:40:27;97053.75;;;3.21;81.98
26865;BME280;40618;51.166;10.322;2023-02-01T14:42:54;97040.09;;;3.22;81.71
26865;BME280;40618;51.166;10.322;2023-02-01T14:58:45;97075.22;;;3.01;82.02
26865;BME280;40618;51.166;10.322;2023-02-01T15:01:29;97048.81;;;2.99;82.26
26865;BME280;40618;51.166;10.322;2023-02-01T15:06:40;97059.03;;;2.98;82.30
26865;BME280;40618;51.166;10.322;2023-02-01T15:09:20;97048.78;;;2.98;82.27
26865;BME280;40618;51.166;10.322;2023-02-01T15:14:18;97047.09;;;3.00;82.15
26865;BME280;40618;51.166;10.322;2023-02-01T15:16:44;97047.94;;;3.03;82.75
26865;BME280;40618;51.166;10.322;2023-02-01T15:19:15;97050.47;;;3.05;82.92
26865;BME280;40618;51.166;10.322;2023-02-01T15:21:47;97064.06;;;3.09;82.16
26865;BME280;40618;51.166;10.322;2023-02-01T15:24:20;97060.63;;;3.13;82.62
26865;BME280;40618;51.166;10.322;2023-02-01T15:26:46;97058.06;;;3.16;82.77
26865;BME280;40618;51.166;10.322;2023-02-01T15:29:13;97059.75;;;3.17;82.81
26865;BME280;40618;51.166;10.322;2023-02-01T15:31:42;97055.47;;;3.20;82.31
26865;BME280;40618;51.166;10.322;2023-02-01T15:34:10;97065.69;;;3.22;82.66
26865;BME280;40618;51.166;10.322;2023-02-01T15:36:36;97072.50;;;3.25;82.48
26865;BME280;40618;51.166;10.322;2023-02-01T15:39:20;97078.44;;;3.25;82.23
26865;BME280;40618;51.166;10.322;2023-02-01T15:42:15;97110.88;;;3.26;82.10
26865;BME280;40618;51.166;10.322;2023-02-01T15:44:45;97097.22;;;3.27;81.91
26865;BME280;40618;51.166;10.322;2023-02-01T15:47:26;97117.69;;;3.27;82.49